Flight Track Log - Related Links

Times and Time Zones

All times are in EDT time to prevent confusion due to time zone crossing. See the N789EX flight status page for this flight to view local times or setup timezone preferences in your user account.

Time Position Orientation Groundspeed Altitude Reporting Facility
EDT Latitude Longitude Course Direction KTS MPH feet Rate Location/Type
Sat 01:18:13 PM 47.5008 -122.2770 146° Southeast 180 207 1,700  Level FlightAware ADS-B
Sat 01:18:21 PM 47.4949 -122.2710 146° Southeast 191 220 2,000 1,714 Climbing FlightAware ADS-B
Sat 01:18:34 PM 47.4851 -122.2610 147° Southeast 212 244 2,300 1,500 Climbing FlightAware ADS-B
Sat 01:18:49 PM 47.4723 -122.2490 148° Southeast 239 275 2,700 1,200 Climbing FlightAware ADS-B
Sat 01:18:59 PM 47.4619 -122.2400 148° Southeast 254 292 2,800 333 Climbing FlightAware ADS-B
Sat 01:19:07 PM 47.4537 -122.2320 147° Southeast 258 297 2,800  Level FlightAware ADS-B
Sat 01:19:11 PM 47.4499 -122.2280 145° Southeast 259 298 2,800  Level FlightAware ADS-B
Sat 01:19:14 PM 47.4468 -122.2250 143° Southeast 260 299 2,800  Level FlightAware ADS-B
Sat 01:19:19 PM 47.4429 -122.2200 136° Southeast 261 300 2,800  Level FlightAware ADS-B
Sat 01:19:22 PM 47.4405 -122.2150 130° Southeast 261 300 2,800  Level FlightAware ADS-B
Sat 01:19:25 PM 47.4381 -122.2100 122° Southeast 262 302 2,800  Level FlightAware ADS-B
Sat 01:19:29 PM 47.4362 -122.2050 116° Southeast 262 302 2,800  Level FlightAware ADS-B
Sat 01:19:32 PM 47.4346 -122.1990 110° East 261 300 2,800  Level FlightAware ADS-B
Sat 01:19:46 PM 47.4297 -122.1750 107° East 260 299 2,800 462 Level FlightAware ADS-B
Sat 01:19:58 PM 47.4254 -122.1550 108° East 263 303 3,000 2,087 Climbing FlightAware ADS-B
Sat 01:20:09 PM 47.4213 -122.1360 109° East 261 300 3,600 3,778 Climbing FlightAware ADS-B
Sat 01:20:25 PM 47.4153 -122.1100 109° East 259 298 4,700 3,913 Climbing FlightAware ADS-B
Sat 01:20:32 PM 47.4128 -122.0990 108° East 262 302 5,100 3,600 Climbing FlightAware ADS-B
Sat 01:20:35 PM 47.4116 -122.0930 105° East 263 303 5,300 4,000 Climbing FlightAware ADS-B
Sat 01:20:38 PM 47.4107 -122.0870 102° East 263 303 5,500 4,000 Climbing FlightAware ADS-B
Sat 01:20:41 PM 47.4101 -122.0820 99° East 265 305 5,700 3,429 Climbing FlightAware ADS-B
Sat 01:20:45 PM 47.4096 -122.0750 95° East 266 306 5,900 3,000 Climbing FlightAware ADS-B
Sat 01:20:49 PM 47.4095 -122.0720 93° East 267 307 6,100 3,000 Climbing FlightAware ADS-B
Sat 01:20:51 PM 47.4093 -122.0650 91° East 267 307 6,200 3,000 Climbing FlightAware ADS-B
Sat 01:20:55 PM 47.4095 -122.0580 87° East 267 307 6,400 4,000 Climbing FlightAware ADS-B
Sat 01:21:00 PM 47.4103 -122.0480 83° East 269 310 6,800 4,000 Climbing FlightAware ADS-B
Sat 01:21:07 PM 47.4114 -122.0340 83° East 271 312 7,200 3,158 Climbing FlightAware ADS-B
Sat 01:21:19 PM 47.4128 -122.0140 85° East 274 315 7,800 3,429 Climbing FlightAware ADS-B
Sat 01:21:28 PM 47.4135 -122.0006 85° East 277 319 8,400 3,600 Climbing FlightAware ADS-B
Sat 01:21:34 PM 47.4143 -121.9850 85° East 278 320 8,700 3,600 Climbing FlightAware ADS-B
Sat 01:21:48 PM 47.4154 -121.9647 85° East 280 322 9,600 3,600 Climbing FlightAware ADS-B
Sat 01:21:49 PM 47.4158 -121.9570 85° East 280 322 9,600 2,516 Level FlightAware ADS-B
Sat 01:22:19 PM 47.4195 -121.8970 84° East 300 345 10,900 2,400 Climbing FlightAware ADS-B
Sat 01:22:29 PM 47.4208 -121.8777 85° East 313 360 11,200 2,323 Climbing FlightAware ADS-B
Sat 01:22:50 PM 47.4235 -121.8310 86° East 324 373 12,100 2,850 Climbing FlightAware ADS-B
Sat 01:23:09 PM 47.4255 -121.7938 85° East 329 379 13,100 3,214 Climbing FlightAware ADS-B
Sat 01:23:18 PM 47.4270 -121.7670 86° East 332 382 13,600 2,625 Climbing FlightAware ADS-B
Sat 01:23:41 PM 47.4286 -121.7200 88° East 297 342 14,500 2,222 Climbing FlightAware ADS-B
Sat 01:23:45 PM 47.4287 -121.7125 89° East 293 337 14,600 750 Climbing FlightAware ADS-B
Sat 01:24:05 PM 47.4288 -121.6730 91° East 285 328 14,800 343 Climbing FlightAware ADS-B
Sat 01:24:20 PM 47.4284 -121.6413 91° East 285 328 14,800  Level FlightAware ADS-B
Sat 01:24:35 PM 47.4280 -121.6140 91° East 284 327 14,800  Level FlightAware ADS-B
Sat 01:24:53 PM 47.4276 -121.5825 91° East 285 328 14,800  Level FlightAware ADS-B
Sat 01:25:06 PM 47.4272 -121.5540 91° East 285 328 14,800  Level FlightAware ADS-B
Sat 01:25:23 PM 47.4268 -121.5235 91° East 268 308 14,800  Level FlightAware ADS-B
Sat 01:25:37 PM 47.4264 -121.4980 91° East 255 293 14,800  Level FlightAware ADS-B
Sat 01:25:55 PM 47.4259 -121.4678 91° East 236 272 14,800  Level FlightAware ADS-B
Sat 01:26:04 PM 47.4256 -121.4540 92° East 227 261 14,800  Level FlightAware ADS-B
Sat 01:26:30 PM 47.4250 -121.4161 91° East 202 232 14,800  Level FlightAware ADS-B
Sat 01:26:34 PM 47.4249 -121.4100 91° East 202 232 14,800 -686 Level FlightAware ADS-B
Sat 01:27:05 PM 47.4244 -121.3680 91° East 200 230 14,400 -833 Descending FlightAware ADS-B
Sat 01:27:10 PM 47.4243 -121.3622 91° East 201 231 14,300 -800 Descending FlightAware ADS-B
Sat 01:27:35 PM 47.4237 -121.3270 91° East 195 224 14,000 -480 Descending FlightAware ADS-B
Sat 01:28:00 PM 47.4231 -121.2950 92° East 168 193 13,900 -176 Descending FlightAware ADS-B
Sat 01:28:09 PM 47.4229 -121.2860 92° East 158 182 13,900 -171 Level FlightAware ADS-B
Sat 01:28:35 PM 47.4225 -121.2580 90° East 157 181 13,800  Descending FlightAware ADS-B
Sat 01:29:06 PM 47.4221 -121.2250 91° East 153 176 13,900 171 Climbing FlightAware ADS-B
Sat 01:29:10 PM 47.4220 -121.2206 92° East 153 176 13,900 -429 Level FlightAware ADS-B
Sat 01:29:34 PM 47.4214 -121.1950 91° East 161 185 13,700 -545 Descending FlightAware ADS-B
Sat 01:29:43 PM 47.4214 -121.1861 90° East 162 186 13,600 -194 Descending FlightAware ADS-B
Sat 01:30:05 PM 47.4215 -121.1620 90° East 158 182 13,600  Level FlightAware ADS-B
Sat 01:30:15 PM 47.4215 -121.1525 90° East 157 181 13,600 -200 Level FlightAware ADS-B
Sat 01:30:35 PM 47.4216 -121.1290 89° East 159 183 13,500 -367 Descending FlightAware ADS-B
Sat 01:31:04 PM 47.4223 -121.0983 88° East 159 183 13,300 -387 Descending FlightAware ADS-B
Sat 01:31:06 PM 47.4223 -121.0960 88° East 159 183 13,300 -545 Level FlightAware ADS-B
Sat 01:31:37 PM 47.4233 -121.0630 86° East 158 182 13,000 -295 Descending FlightAware ADS-B
Sat 01:32:07 PM 47.4245 -121.0300 88° East 166 191 13,000 400 Level FlightAware ADS-B
Sat 01:32:37 PM 47.4251 -120.9950 89° East 164 189 13,400 984 Climbing FlightAware ADS-B
Sat 01:33:08 PM 47.4253 -120.9610 90° East 158 182 14,000 885 Climbing FlightAware ADS-B
Sat 01:33:38 PM 47.4254 -120.9290 91° East 162 186 14,300 490 Climbing FlightAware ADS-B
Sat 01:33:57 PM 47.4246 -120.9070 94° East 162 186 14,400  Climbing FlightAware ADS-B
Sat 01:34:28 PM 47.4226 -120.8740 96° East 162 186 14,300 -103 Descending FlightAware ADS-B
Sat 01:34:55 PM 47.4203 -120.8450 99° East 161 185 14,300 -316 Level FlightAware ADS-B
Sat 01:35:25 PM 47.4150 -120.8120 104° East 164 189 14,000 -300 Descending FlightAware ADS-B
Sat 01:35:55 PM 47.4108 -120.7790 102° East 161 185 14,000 -125 Level FlightAware ADS-B
Sat 01:36:13 PM 47.4075 -120.7600 107° East 161 185 13,900 -545 Descending FlightAware ADS-B
Sat 01:36:39 PM 47.4008 -120.7330 110° East 166 191 13,600 -429 Descending FlightAware ADS-B
Sat 01:37:09 PM 47.3933 -120.7010 109° East 162 186 13,500 -194 Descending FlightAware ADS-B
Sat 01:37:41 PM 47.3852 -120.6690 110° East 163 188 13,400 -103 Descending FlightAware ADS-B
Sat 01:38:07 PM 47.3824 -120.6410 83° East 153 176 13,400  Level FlightAware ADS-B
Sat 01:38:49 PM 47.3867 -120.5940 83° East 176 203 13,400 396 Level FlightAware ADS-B
Sat 01:39:38 PM 47.3914 -120.5310 84° East 185 213 14,000  Climbing FlightAware ADS-B
Sat 01:40:11 PM 47.3938 -120.4950 84° East 160 184 13,400 -1,200 Descending FlightAware ADS-B
Sat 01:41:08 PM 47.3956 -120.4350 84° East 169 194 12,200 -610 Descending Seattle Center
Sat 01:42:09 PM 47.3969 -120.3681 88° East 165 190 12,200 99 Level Seattle Center
Sat 01:43:09 PM 47.3747 -120.3056 118° Southeast 178 205 12,400 248 Climbing Seattle Center
Sat 01:44:10 PM 47.3753 -120.2319 89° East 170 196 12,700 295 Climbing Seattle Center
Sat 01:45:11 PM 47.3719 -120.1611 94° East 171 197 13,000 197 Climbing Seattle Center
Sat 01:46:12 PM 47.3761 -120.0700 86° East 236 272 13,100 492 Climbing Seattle Center
Sat 01:47:13 PM 47.4239 -119.9975 46° Northeast 247 284 14,000 934 Climbing Seattle Center
Sat 01:48:14 PM 47.4714 -119.9225 47° Northeast 253 291 15,000 492 Climbing Seattle Center
Sat 01:49:15 PM 47.5256 -119.8425 45° Northeast 257 296 15,000  Level Seattle Center
Sat 01:50:16 PM 47.5647 -119.7828 46° Northeast 204 235 15,000 -443 Level Seattle Center
Sat 01:51:17 PM 47.5964 -119.7325 47° Northeast 171 197 14,100 -639 Descending Seattle Center
Sat 01:52:18 PM 47.6294 -119.6808 46° Northeast 171 197 13,700 -541 Descending Seattle Center
Sat 01:53:19 PM 47.6628 -119.6303 46° Northeast 171 197 13,000 -295 Descending Seattle Center
Sat 01:54:20 PM 47.7000 -119.5656 49° Northeast 190 219 13,100 787 Climbing Seattle Center
Sat 01:55:21 PM 47.7319 -119.5094 50° Northeast 179 206 14,600 1,328 Climbing Seattle Center
Sat 01:56:22 PM 47.7625 -119.4581 48° Northeast 167 192 15,800 -148 Climbing Seattle Center
Sat 01:57:23 PM 47.8000 -119.3942 49° Northeast 203 234 14,300 -1,328 Descending Seattle Center
Sat 01:58:24 PM 47.8408 -119.3297 47° Northeast 213 245 13,100 -492 Descending Seattle Center
Sat 01:59:25 PM 47.8811 -119.2700 45° Northeast 190 219 13,300 590 Climbing Seattle Center
Sat 02:00:26 PM 47.9139 -119.2158 48° Northeast 177 204 14,300 738 Climbing Seattle Center
Sat 02:01:27 PM 47.9458 -119.1683 45° Northeast 167 192 14,800 -148 Climbing Seattle Center
Sat 02:02:28 PM 47.9797 -119.1136 47° Northeast 177 204 14,000 -393 Descending Seattle Center
Sat 02:03:29 PM 47.9772 -119.0311 93° East 252 290 14,000 -393 Level Seattle Center
Sat 02:04:30 PM 47.9042 -119.0694 199° South 284 327 13,200 -984 Descending Seattle Center
Sat 02:05:31 PM 47.8325 -119.1200 205° Southwest 287 330 12,000 -1,230 Descending Seattle Center
Sat 02:06:32 PM 47.7608 -119.1661 203° Southwest 282 325 10,700 -1,279 Descending Seattle Center
Sat 02:07:33 PM 47.6911 -119.2136 205° Southwest 278 320 9,400 -1,377 Descending Seattle Center
Sat 02:08:34 PM 47.6169 -119.2642 205° Southwest 276 318 7,900 -1,426 Descending Seattle Center
Sat 02:09:35 PM 47.5483 -119.3167 207° Southwest 276 318 6,500 -1,171 Descending Seattle Center
Sat 02:10:37 PM 47.4806 -119.3675 207° Southwest 275 316 5,500 -683 Descending Seattle Center
Sat 02:11:38 PM 47.4206 -119.4131 207° Southwest 247 284 5,100 -738 Descending Seattle Center
Sat 02:12:39 PM 47.3586 -119.3900 166° South 223 257 4,000 -1,082 Descending Seattle Center
Sat 02:13:40 PM 47.3053 -119.3644 162° South 206 237 2,900 -934 Descending Seattle Center
Sat 02:14:41 PM 47.2583 -119.3422 162° South 186 214 2,100 -836 Descending Seattle Center
Sat 02:15:42 PM 47.2142 -119.3208 162° South 172 198 1,200 -885 Descending Seattle Center
Sat 02:17:00 PM 47.2086 -119.3191 161° South  Level Estimated
Sat 02:24:00 PM 47.2086 -119.3191 161° South  Level Estimated
Sat 02:25:00 PM 47.2086 -119.3191 169° South  Level Estimated
Sat 02:26:00 PM 47.2086 -119.3191 161° South  Level Estimated

Login

Don't have an account? Register now (free) for customized features, flight alerts, and more!